Time;durP1;ratioP1;P1;durP2;ratioP2;P2;SDS_P1;SDS_P2;PMS_P1;PMS_P2;Temp;Humidity;BMP_temperature;BMP_pressure;BME280_temperature;BME280_humidity;BME280_pressure;Samples;Min_cycle;Max_cycle;Signal;HPM_P1;HPM_P2
2023/05/14 00:01:35;;;;;;;7.57;3.40;;;13.20;99.90;;;;;;7402885;19;19915;-70
2023/05/14 00:04:02;;;;;;;6.32;3.10;;;13.30;99.90;;;;;;7401852;19;20331;-70
2023/05/14 00:06:28;;;;;;;6.20;3.38;;;13.20;99.90;;;;;;7401547;19;19914;-70
2023/05/14 00:08:54;;;;;;;5.50;3.20;;;13.20;99.90;;;;;;7405624;19;19931;-70
2023/05/14 00:11:20;;;;;;;5.97;2.63;;;13.30;99.90;;;;;;7396611;19;19982;-70
2023/05/14 00:13:46;;;;;;;6.20;2.45;;;13.20;99.90;;;;;;7382044;19;19914;-69
2023/05/14 00:16:11;;;;;;;4.43;2.38;;;13.20;99.90;;;;;;7398845;19;19915;-70
2023/05/14 00:18:37;;;;;;;5.68;2.50;;;13.20;99.90;;;;;;7405200;19;19914;-71
2023/05/14 00:21:03;;;;;;;6.60;2.78;;;13.20;99.90;;;;;;7402620;19;19918;-70
2023/05/14 00:23:29;;;;;;;5.88;2.35;;;13.20;99.90;;;;;;7405883;19;19917;-70
2023/05/14 00:25:55;;;;;;;7.55;2.15;;;13.10;99.90;;;;;;7403472;19;20263;-70
2023/05/14 00:28:20;;;;;;;7.13;2.47;;;13.20;99.90;;;;;;7404753;19;20502;-71
2023/05/14 00:30:46;;;;;;;5.05;2.35;;;13.20;99.90;;;;;;7399850;19;19918;-70
2023/05/14 00:33:12;;;;;;;8.38;2.75;;;13.20;99.90;;;;;;7403990;19;19918;-70
2023/05/14 00:35:38;;;;;;;6.68;2.67;;;13.20;99.90;;;;;;7399411;19;20541;-70
2023/05/14 00:38:04;;;;;;;5.25;2.83;;;13.20;99.90;;;;;;7402783;19;19931;-70
2023/05/14 00:40:30;;;;;;;5.90;2.70;;;13.20;99.90;;;;;;7398574;19;19926;-70
2023/05/14 00:42:56;;;;;;;5.55;2.53;;;13.10;99.90;;;;;;7365278;19;19923;-71
2023/05/14 00:45:22;;;;;;;6.43;3.17;;;13.00;99.90;;;;;;7393207;19;19933;-70
2023/05/14 00:47:48;;;;;;;6.22;2.75;;;13.00;99.90;;;;;;7401287;19;20637;-69
2023/05/14 00:50:15;;;;;;;4.65;2.70;;;13.00;99.90;;;;;;7403368;19;19927;-71
2023/05/14 00:52:41;;;;;;;6.00;3.15;;;13.00;99.90;;;;;;7401486;19;21185;-69
2023/05/14 00:55:07;;;;;;;5.75;2.65;;;12.90;99.90;;;;;;7401662;19;19922;-71
2023/05/14 00:57:35;;;;;;;7.85;2.72;;;12.90;99.90;;;;;;7401450;19;20615;-70
2023/05/14 01:00:02;;;;;;;5.22;2.63;;;12.90;99.90;;;;;;7404720;19;19938;-70
2023/05/14 01:02:28;;;;;;;7.20;2.92;;;12.90;99.90;;;;;;7400885;19;20498;-70
2023/05/14 01:04:54;;;;;;;5.47;2.70;;;12.90;99.90;;;;;;7401485;19;19940;-71
2023/05/14 01:07:38;;;;;;;6.35;2.75;;;12.90;99.90;;;;;;7402715;19;19915;-70
2023/05/14 01:10:20;;;;;;;6.50;2.55;;;12.90;99.90;;;;;;7399736;19;19945;-70
2023/05/14 01:13:05;;;;;;;4.90;2.40;;;12.80;99.90;;;;;;7398202;19;19924;-71
2023/05/14 01:15:33;;;;;;;5.85;2.85;;;12.80;99.90;;;;;;7398430;19;19964;-71
2023/05/14 01:18:03;;;;;;;5.93;2.58;;;12.90;99.90;;;;;;7399798;19;19994;-70
2023/05/14 01:20:29;;;;;;;6.50;3.03;;;12.80;99.90;;;;;;7400235;19;19942;-70
2023/05/14 01:22:55;;;;;;;7.28;2.88;;;12.80;99.90;;;;;;7403946;19;19911;-70
2023/05/14 01:25:20;;;;;;;5.55;2.28;;;13.00;99.90;;;;;;7398925;19;20311;-70
2023/05/14 01:28:08;;;;;;;5.78;2.88;;;13.00;99.90;;;;;;7403812;19;19911;-70
2023/05/14 01:30:39;;;;;;;7.95;2.97;;;13.00;99.90;;;;;;7402745;19;19919;-68
2023/05/14 01:33:15;;;;;;;6.55;2.75;;;12.90;99.90;;;;;;7403401;19;19931;-70
2023/05/14 01:35:43;;;;;;;9.60;2.97;;;12.90;99.90;;;;;;7403233;19;19917;-70
2023/05/14 01:38:11;;;;;;;5.43;2.90;;;12.90;99.90;;;;;;7399659;19;19914;-70
2023/05/14 01:40:38;;;;;;;7.10;2.40;;;12.80;99.90;;;;;;7402680;19;20628;-71
2023/05/14 01:43:04;;;;;;;6.68;2.70;;;12.90;99.90;;;;;;7401688;19;19921;-70
2023/05/14 01:45:30;;;;;;;5.38;2.08;;;12.80;99.90;;;;;;7399654;19;19939;-69
2023/05/14 01:47:56;;;;;;;4.93;2.33;;;12.80;99.90;;;;;;7401247;19;20260;-69
2023/05/14 01:50:22;;;;;;;4.53;2.20;;;12.90;99.90;;;;;;7400851;19;22066;-70
2023/05/14 01:52:48;;;;;;;5.30;2.60;;;13.00;99.90;;;;;;7401369;19;19914;-69
2023/05/14 01:55:14;;;;;;;4.72;2.72;;;13.10;99.90;;;;;;7397664;19;19918;-71
2023/05/14 01:57:40;;;;;;;5.90;2.97;;;13.10;99.90;;;;;;7400554;19;19919;-70
2023/05/14 02:00:06;;;;;;;6.45;3.28;;;13.10;99.90;;;;;;7399744;19;19974;-70
2023/05/14 02:02:32;;;;;;;5.63;3.45;;;13.00;99.90;;;;;;7401816;19;19990;-71
2023/05/14 02:04:58;;;;;;;7.60;3.63;;;13.10;99.90;;;;;;7401799;19;20338;-70
2023/05/14 02:07:24;;;;;;;7.82;3.80;;;13.10;99.90;;;;;;7399014;19;19923;-69
2023/05/14 02:09:51;;;;;;;8.25;4.13;;;13.10;99.90;;;;;;7398577;19;19915;-70
2023/05/14 02:12:16;;;;;;;;;;;13.00;99.90;;;;;;7401402;19;19958;-70
2023/05/14 02:14:42;;;;;;;10.25;4.20;;;13.00;99.90;;;;;;7399459;19;19943;-70
2023/05/14 02:17:08;;;;;;;7.20;4.20;;;12.90;99.90;;;;;;7399567;19;19911;-70
2023/05/14 02:19:34;;;;;;;7.63;3.85;;;12.80;99.90;;;;;;7402185;19;19914;-69
2023/05/14 02:22:02;;;;;;;5.38;3.13;;;12.80;99.90;;;;;;7400046;19;20250;-69
2023/05/14 02:24:28;;;;;;;6.75;3.78;;;12.70;99.90;;;;;;7398004;19;20616;-70
2023/05/14 02:26:54;;;;;;;7.72;3.15;;;12.70;99.90;;;;;;7400524;19;19910;-70
2023/05/14 02:29:19;;;;;;;6.00;3.00;;;12.60;99.90;;;;;;7397927;19;19974;-70
2023/05/14 02:31:45;;;;;;;6.47;3.65;;;12.70;99.90;;;;;;7401505;19;19923;-70
2023/05/14 02:34:11;;;;;;;6.43;2.88;;;12.70;99.90;;;;;;7398843;19;19974;-70
2023/05/14 02:36:36;;;;;;;6.03;3.20;;;12.70;99.90;;;;;;7401746;19;20007;-70
2023/05/14 02:39:03;;;;;;;7.45;3.33;;;12.70;99.90;;;;;;7400539;19;19914;-70
2023/05/14 02:41:29;;;;;;;5.72;3.25;;;12.70;99.90;;;;;;7401333;19;19910;-70
2023/05/14 02:43:55;;;;;;;5.55;2.25;;;12.70;99.90;;;;;;7400394;19;20244;-70
2023/05/14 02:46:21;;;;;;;5.70;2.40;;;12.60;99.90;;;;;;7398926;19;19933;-69
2023/05/14 02:48:46;;;;;;;6.57;2.55;;;12.70;99.90;;;;;;7398875;19;19926;-70
2023/05/14 02:51:12;;;;;;;6.15;3.03;;;12.70;99.90;;;;;;7399464;19;19914;-70
2023/05/14 02:53:38;;;;;;;5.30;2.67;;;12.70;99.90;;;;;;7401142;19;19918;-70
2023/05/14 02:56:04;;;;;;;4.78;3.20;;;12.70;99.90;;;;;;7394055;19;19942;-69
2023/05/14 02:58:29;;;;;;;6.55;2.90;;;12.70;99.90;;;;;;7401415;19;19919;-70
2023/05/14 03:00:55;;;;;;;5.93;2.90;;;12.60;99.90;;;;;;7399396;19;19919;-70
2023/05/14 03:03:21;;;;;;;4.75;2.60;;;12.60;99.90;;;;;;7400066;19;20618;-69
2023/05/14 03:05:47;;;;;;;5.63;3.15;;;12.50;99.90;;;;;;7400272;19;19994;-70
2023/05/14 03:08:12;;;;;;;4.57;2.65;;;12.50;99.90;;;;;;7398179;19;19926;-70
2023/05/14 03:10:38;;;;;;;6.10;3.83;;;12.50;99.90;;;;;;7376080;19;19919;-70
2023/05/14 03:13:04;;;;;;;6.93;2.85;;;12.50;99.90;;;;;;7397009;19;19919;-71
2023/05/14 03:15:30;;;;;;;6.45;2.63;;;12.50;99.90;;;;;;7400046;19;19918;-70
2023/05/14 03:17:55;;;;;;;10.38;2.70;;;12.40;99.90;;;;;;7399019;19;19926;-70
2023/05/14 03:20:23;;;;;;;5.00;2.40;;;12.50;99.90;;;;;;7398292;19;20267;-70
2023/05/14 03:22:49;;;;;;;7.03;2.03;;;12.50;99.90;;;;;;7400701;19;19919;-70
2023/05/14 03:25:15;;;;;;;4.10;1.70;;;12.70;99.90;;;;;;7398559;19;19946;-70
2023/05/14 03:27:40;;;;;;;7.10;2.28;;;12.80;99.90;;;;;;7398612;19;20315;-70
2023/05/14 03:30:07;;;;;;;6.15;2.17;;;12.80;99.90;;;;;;7400328;19;19978;-71
2023/05/14 03:32:33;;;;;;;4.10;2.28;;;12.90;99.90;;;;;;7398192;19;19914;-70
2023/05/14 03:34:58;;;;;;;4.05;2.78;;;13.00;99.90;;;;;;7397963;19;19922;-70
2023/05/14 03:37:24;;;;;;;5.13;3.03;;;12.90;99.90;;;;;;7397274;19;19939;-70
2023/05/14 03:39:50;;;;;;;4.78;2.20;;;12.80;99.90;;;;;;7397335;19;19934;-70
2023/05/14 03:42:16;;;;;;;4.50;1.90;;;12.80;99.90;;;;;;7395706;19;20340;-71
2023/05/14 03:44:41;;;;;;;6.05;3.08;;;12.80;99.90;;;;;;7396773;19;19922;-70
2023/05/14 03:47:07;;;;;;;5.00;2.88;;;12.90;99.90;;;;;;7396463;19;19939;-69
2023/05/14 03:49:33;;;;;;;8.63;3.92;;;12.90;99.90;;;;;;7398364;19;19918;-70
2023/05/14 03:51:59;;;;;;;8.73;3.50;;;12.90;99.90;;;;;;7397295;19;19922;-71
2023/05/14 03:54:25;;;;;;;6.32;3.38;;;12.90;99.90;;;;;;7396782;19;19919;-70
2023/05/14 03:56:51;;;;;;;5.95;3.70;;;12.90;99.90;;;;;;7394810;19;19918;-71
2023/05/14 03:59:17;;;;;;;9.73;4.20;;;13.00;99.90;;;;;;7395206;19;20366;-70
2023/05/14 04:01:43;;;;;;;6.20;3.47;;;12.90;99.90;;;;;;7399802;19;20312;-70
2023/05/14 04:04:08;;;;;;;8.45;4.43;;;12.80;99.90;;;;;;7396095;19;19915;-72
2023/05/14 04:06:34;;;;;;;7.60;4.63;;;12.80;99.90;;;;;;7398490;19;20340;-70
2023/05/14 04:09:00;;;;;;;7.03;3.97;;;12.80;99.90;;;;;;7398251;19;19926;-70
2023/05/14 04:11:26;;;;;;;6.15;3.97;;;12.90;99.90;;;;;;7394821;19;19927;-71
2023/05/14 04:13:52;;;;;;;7.88;3.40;;;13.00;99.90;;;;;;7398718;19;20259;-70
2023/05/14 04:16:17;;;;;;;6.80;3.40;;;13.00;99.90;;;;;;7395796;19;19925;-71
2023/05/14 04:18:43;;;;;;;5.15;2.35;;;13.00;99.90;;;;;;7396082;19;19915;-70
2023/05/14 04:21:09;;;;;;;6.07;2.50;;;13.20;99.90;;;;;;7393028;19;19919;-70
2023/05/14 04:23:34;;;;;;;4.82;2.63;;;13.40;99.90;;;;;;7397655;19;20252;-69
2023/05/14 04:26:00;;;;;;;3.40;1.80;;;13.40;99.90;;;;;;7397204;19;20325;-70
2023/05/14 04:28:26;;;;;;;4.28;1.50;;;13.50;99.50;;;;;;7398831;19;19922;-70
2023/05/14 04:30:52;;;;;;;4.20;2.28;;;13.60;98.50;;;;;;7398284;19;19922;-70
2023/05/14 04:33:17;;;;;;;5.47;1.80;;;13.70;97.90;;;;;;7373232;19;20351;-71
2023/05/14 04:35:44;;;;;;;4.53;1.92;;;13.70;96.90;;;;;;7396102;19;19982;-71
2023/05/14 04:38:10;;;;;;;3.58;1.85;;;13.80;96.80;;;;;;7398619;19;19914;-70
2023/05/14 04:40:36;;;;;;;4.72;2.00;;;13.80;96.10;;;;;;7401705;19;19922;-70
2023/05/14 04:43:02;;;;;;;4.22;2.05;;;13.80;96.40;;;;;;7402953;19;19921;-70
2023/05/14 04:45:27;;;;;;;5.00;1.73;;;13.80;96.50;;;;;;7375418;19;20276;-71
2023/05/14 04:47:53;;;;;;;3.95;2.10;;;13.80;96.00;;;;;;7402696;19;19943;-70
2023/05/14 04:50:19;;;;;;;5.10;2.00;;;13.80;96.20;;;;;;7400868;19;19918;-70
2023/05/14 04:52:45;;;;;;;4.85;1.80;;;13.80;95.90;;;;;;7403090;19;20358;-70
2023/05/14 04:55:10;;;;;;;4.95;1.65;;;13.80;96.00;;;;;;7400412;19;19926;-71
2023/05/14 04:57:36;;;;;;;2.95;1.23;;;13.80;95.60;;;;;;7404437;19;19989;-70
2023/05/14 05:00:04;;;;;;;3.30;1.30;;;13.90;94.90;;;;;;7403329;19;19974;-71
2023/05/14 05:02:30;;;;;;;2.72;1.40;;;14.00;94.20;;;;;;7404486;19;19924;-70
2023/05/14 05:04:56;;;;;;;3.28;0.90;;;13.90;93.80;;;;;;7401880;19;19946;-70
2023/05/14 05:07:22;;;;;;;3.30;1.00;;;13.90;93.20;;;;;;7400960;19;19942;-70
2023/05/14 05:09:48;;;;;;;2.90;1.02;;;14.00;92.10;;;;;;7404341;19;20260;-71
2023/05/14 05:12:13;;;;;;;2.80;1.60;;;14.00;91.50;;;;;;7401371;19;19974;-71
2023/05/14 05:14:39;;;;;;;4.82;1.15;;;14.00;91.00;;;;;;7398506;19;19966;-71
2023/05/14 05:17:05;;;;;;;2.80;1.40;;;14.00;91.20;;;;;;7399730;19;19938;-72
2023/05/14 05:19:31;;;;;;;3.20;1.45;;;13.90;91.30;;;;;;7399204;19;19966;-72
2023/05/14 05:21:57;;;;;;;3.85;1.23;;;13.90;91.40;;;;;;7403643;19;19919;-71
2023/05/14 05:24:22;;;;;;;2.75;1.05;;;14.00;91.00;;;;;;7402802;19;20331;-72
2023/05/14 05:26:49;;;;;;;3.13;1.27;;;14.00;91.00;;;;;;7402008;19;20347;-70
2023/05/14 05:29:14;;;;;;;2.70;1.00;;;14.00;91.00;;;;;;7400924;19;19919;-71
2023/05/14 05:31:42;;;;;;;4.85;1.10;;;14.10;90.70;;;;;;7402836;19;19983;-71
2023/05/14 05:34:07;;;;;;;3.85;1.15;;;14.10;90.00;;;;;;7401258;19;19922;-71
2023/05/14 05:36:33;;;;;;;3.13;0.98;;;14.10;90.00;;;;;;7403153;19;20347;-71
2023/05/14 05:38:59;;;;;;;2.00;0.85;;;14.20;90.00;;;;;;7403189;19;19915;-71
2023/05/14 05:41:25;;;;;;;5.38;1.10;;;14.20;90.00;;;;;;7398671;19;20239;-71
2023/05/14 05:43:51;;;;;;;3.35;0.80;;;14.20;90.00;;;;;;7400946;19;20246;-71
2023/05/14 05:46:18;;;;;;;2.85;1.20;;;14.20;89.30;;;;;;7398430;19;19927;-72
2023/05/14 05:48:43;;;;;;;3.92;0.93;;;14.20;89.10;;;;;;7398732;19;19915;-72
2023/05/14 05:51:09;;;;;;;4.32;1.23;;;14.20;89.00;;;;;;7401498;19;19922;-72
2023/05/14 05:53:37;;;;;;;3.55;1.02;;;14.30;89.80;;;;;;7403946;19;20270;-70
2023/05/14 05:56:03;;;;;;;3.53;1.10;;;14.30;89.50;;;;;;7401864;19;20320;-70
2023/05/14 05:58:28;;;;;;;4.30;1.63;;;14.30;90.00;;;;;;7369151;19;19931;-71
2023/05/14 06:00:56;;;;;;;2.78;1.23;;;14.20;90.80;;;;;;7401595;19;19915;-72
2023/05/14 06:03:22;;;;;;;3.92;1.30;;;14.10;91.00;;;;;;7399389;19;19982;-71
2023/05/14 06:05:48;;;;;;;4.47;1.42;;;14.10;90.30;;;;;;7402366;19;19918;-71
2023/05/14 06:08:13;;;;;;;3.38;1.30;;;14.20;90.50;;;;;;7401150;19;19922;-71
2023/05/14 06:10:39;;;;;;;2.72;1.20;;;14.20;90.00;;;;;;7401583;19;19915;-72
2023/05/14 06:13:05;;;;;;;3.63;1.30;;;14.20;90.10;;;;;;7400508;19;19915;-71
2023/05/14 06:15:31;;;;;;;4.25;1.00;;;14.20;90.10;;;;;;7402104;19;19919;-72
2023/05/14 06:17:57;;;;;;;4.35;1.25;;;14.20;90.80;;;;;;7401928;19;19935;-71
2023/05/14 06:20:23;;;;;;;3.25;1.45;;;14.30;90.60;;;;;;7400491;19;19934;-72
2023/05/14 06:22:48;;;;;;;4.28;0.98;;;14.30;90.50;;;;;;7402746;19;19974;-70
2023/05/14 06:25:14;;;;;;;3.83;1.50;;;14.40;90.60;;;;;;7394428;19;19952;-73
2023/05/14 06:27:40;;;;;;;3.42;1.65;;;14.40;90.30;;;;;;7400673;19;19926;-71
2023/05/14 06:30:06;;;;;;;5.32;1.30;;;14.50;90.30;;;;;;7399754;19;19938;-71
2023/05/14 06:32:32;;;;;;;4.50;2.00;;;14.40;90.40;;;;;;7399717;19;19934;-71
2023/05/14 06:34:58;;;;;;;5.30;1.10;;;14.40;90.50;;;;;;7399627;19;19919;-71
2023/05/14 06:37:23;;;;;;;4.75;1.90;;;14.40;90.50;;;;;;7398936;19;19928;-72
2023/05/14 06:39:49;;;;;;;3.05;1.08;;;14.30;90.50;;;;;;7402593;19;20275;-71
2023/05/14 06:42:18;;;;;;;5.80;1.77;;;14.30;90.70;;;;;;7377176;19;19938;-71
2023/05/14 06:44:44;;;;;;;3.30;1.58;;;14.30;90.40;;;;;;7397075;19;20391;-71
2023/05/14 06:47:10;;;;;;;4.95;1.95;;;14.40;90.20;;;;;;7395529;19;19927;-71
2023/05/14 06:49:35;;;;;;;3.92;1.40;;;14.60;90.20;;;;;;7401181;19;19929;-71
2023/05/14 06:52:02;;;;;;;4.30;1.80;;;14.60;90.10;;;;;;7402045;19;19929;-70
2023/05/14 06:54:28;;;;;;;4.05;1.75;;;14.70;90.30;;;;;;7398482;19;19906;-70
2023/05/14 06:56:54;;;;;;;3.95;1.70;;;14.70;90.50;;;;;;7401691;19;19932;-71
2023/05/14 06:59:20;;;;;;;6.18;1.40;;;14.70;90.30;;;;;;7395505;19;19921;-71
2023/05/14 07:01:45;;;;;;;3.80;1.92;;;14.80;90.30;;;;;;7397190;19;19923;-71
2023/05/14 07:04:11;;;;;;;5.15;1.30;;;14.90;90.10;;;;;;7378602;19;20253;-71
2023/05/14 07:06:37;;;;;;;7.22;1.20;;;15.00;89.60;;;;;;7400571;19;19917;-71
2023/05/14 07:09:03;;;;;;;3.72;1.30;;;15.10;89.60;;;;;;7396692;19;20359;-71
2023/05/14 07:11:29;;;;;;;3.35;1.48;;;15.10;89.60;;;;;;7397690;19;19946;-71
2023/05/14 07:13:55;;;;;;;4.88;1.65;;;15.20;89.40;;;;;;7396223;19;20331;-73
2023/05/14 07:16:21;;;;;;;3.80;1.60;;;15.40;88.80;;;;;;7397532;19;19990;-72
2023/05/14 07:18:46;;;;;;;7.60;1.95;;;15.40;88.60;;;;;;7399518;19;19919;-71
2023/05/14 07:21:12;;;;;;;2.95;1.42;;;15.60;87.40;;;;;;7396512;19;19968;-72
2023/05/14 07:23:38;;;;;;;3.75;1.50;;;15.60;87.00;;;;;;7400504;19;19952;-70
2023/05/14 07:26:07;;;;;;;4.03;1.50;;;15.70;87.50;;;;;;7396245;19;19919;-71
2023/05/14 07:28:33;;;;;;;3.25;1.33;;;15.80;87.10;;;;;;7399822;19;19930;-72
2023/05/14 07:30:59;;;;;;;5.15;1.50;;;15.80;87.10;;;;;;7400284;19;19922;-72
2023/05/14 07:33:25;;;;;;;3.85;1.95;;;15.90;86.10;;;;;;7398888;19;19918;-72
2023/05/14 07:35:51;;;;;;;4.90;1.92;;;16.00;86.00;;;;;;7400818;19;19922;-71
2023/05/14 07:38:18;;;;;;;4.90;1.55;;;16.00;85.50;;;;;;7397095;19;19942;-71
2023/05/14 07:40:44;;;;;;;3.47;1.50;;;16.10;85.30;;;;;;7398790;19;20007;-71
2023/05/14 07:43:10;;;;;;;6.80;3.33;;;16.10;84.90;;;;;;7400001;19;19929;-71
2023/05/14 07:45:38;;;;;;;5.63;1.90;;;16.20;84.70;;;;;;7346657;19;20484;-72
2023/05/14 07:48:04;;;;;;;4.40;1.60;;;16.20;84.20;;;;;;7398399;19;20461;-71
2023/05/14 07:50:31;;;;;;;3.45;1.63;;;16.30;84.00;;;;;;7397574;19;19922;-71
2023/05/14 07:52:57;;;;;;;3.72;1.65;;;16.40;84.10;;;;;;7399578;19;20341;-72
2023/05/14 07:55:23;;;;;;;3.55;1.42;;;16.50;83.80;;;;;;7398376;19;19934;-71
2023/05/14 07:57:48;;;;;;;3.97;1.35;;;16.60;83.60;;;;;;7401677;19;19925;-72
2023/05/14 08:00:15;;;;;;;5.22;1.77;;;16.60;83.50;;;;;;7393751;19;19918;-73
2023/05/14 08:02:42;;;;;;;4.80;1.58;;;16.60;84.10;;;;;;7397654;19;19918;-72
2023/05/14 08:05:09;;;;;;;4.47;1.85;;;16.70;83.70;;;;;;7396611;19;19918;-72
2023/05/14 08:07:35;;;;;;;3.75;1.75;;;16.70;83.50;;;;;;7392651;19;19920;-71
2023/05/14 08:10:02;;;;;;;3.50;2.00;;;16.70;83.80;;;;;;7396407;19;19923;-72
2023/05/14 08:12:28;;;;;;;6.57;1.85;;;16.80;83.40;;;;;;7401738;19;19922;-72
2023/05/14 08:14:55;;;;;;;4.95;1.50;;;16.80;83.40;;;;;;7402469;19;19922;-72
2023/05/14 08:17:21;;;;;;;3.47;2.30;;;16.90;83.50;;;;;;7402751;19;19922;-72
2023/05/14 08:19:46;;;;;;;6.70;1.48;;;17.00;83.30;;;;;;7405455;19;19929;-71
2023/05/14 08:22:12;;;;;;;3.13;1.40;;;17.00;82.50;;;;;;7403551;19;19942;-72
2023/05/14 08:24:41;;;;;;;6.43;2.17;;;17.20;82.50;;;;;;7405967;19;19931;-72
2023/05/14 08:27:09;;;;;;;4.40;1.83;;;17.30;82.40;;;;;;7400564;19;20002;-71
2023/05/14 08:29:34;;;;;;;3.08;1.20;;;17.30;81.10;;;;;;7403085;19;19951;-72
2023/05/14 08:32:04;;;;;;;4.95;1.40;;;17.40;80.20;;;;;;7398694;19;19915;-71
2023/05/14 08:34:29;;;;;;;5.18;1.52;;;17.60;80.20;;;;;;7403343;19;19922;-72
2023/05/14 08:36:55;;;;;;;3.72;1.70;;;18.10;78.20;;;;;;7403774;19;19921;-72
2023/05/14 08:39:21;;;;;;;3.70;1.48;;;20.00;75.20;;;;;;7402053;19;19914;-72
2023/05/14 08:41:47;;;;;;;10.25;5.13;;;21.50;70.30;;;;;;7402125;19;19918;-72
2023/05/14 08:44:17;;;;;;;4.50;2.13;;;22.60;66.50;;;;;;7401784;19;19914;-71
2023/05/14 08:46:43;;;;;;;4.20;1.60;;;23.50;61.90;;;;;;7404275;19;20021;-71
2023/05/14 08:49:32;;;;;;;3.67;1.60;;;23.70;60.50;;;;;;7404721;19;19922;-71
2023/05/14 08:51:59;;;;;;;5.13;2.88;;;24.30;58.90;;;;;;7405604;19;19910;-71
2023/05/14 08:54:25;;;;;;;6.70;1.70;;;24.70;58.90;;;;;;7401950;19;19926;-72
2023/05/14 08:56:53;;;;;;;3.50;1.83;;;25.30;55.40;;;;;;7403044;19;19942;-71
2023/05/14 08:59:20;;;;;;;4.22;1.70;;;25.20;56.30;;;;;;7402801;19;19925;-72
2023/05/14 09:01:47;;;;;;;3.10;1.55;;;25.10;55.20;;;;;;7404265;19;19918;-72
2023/05/14 09:04:16;;;;;;;3.85;1.63;;;25.20;54.90;;;;;;7403507;19;19935;-74
2023/05/14 09:06:43;;;;;;;5.20;1.92;;;25.20;54.80;;;;;;7399198;19;19915;-71
2023/05/14 09:09:10;;;;;;;3.90;1.60;;;26.00;53.70;;;;;;7402145;19;19935;-73
2023/05/14 09:11:45;;;;;;;3.58;1.77;;;25.40;53.40;;;;;;7371799;19;19926;-72
2023/05/14 09:14:11;;;;;;;4.10;1.83;;;25.20;53.90;;;;;;7401442;19;20335;-72
2023/05/14 09:16:38;;;;;;;4.18;1.83;;;24.90;53.60;;;;;;7405247;19;19982;-71
2023/05/14 09:19:05;;;;;;;4.75;2.10;;;23.50;55.50;;;;;;7402905;19;20340;-72
2023/05/14 09:21:32;;;;;;;4.72;2.28;;;22.60;57.20;;;;;;7402337;19;19911;-71
2023/05/14 09:23:58;;;;;;;4.85;3.03;;;22.60;58.50;;;;;;7398015;19;19918;-71
2023/05/14 09:26:27;;;;;;;3.60;1.92;;;23.10;56.60;;;;;;7400198;19;19925;-72
2023/05/14 09:28:56;;;;;;;4.00;1.85;;;24.00;56.10;;;;;;7403837;19;19927;-72
2023/05/14 09:31:22;;;;;;;5.90;2.20;;;23.80;56.60;;;;;;7402794;19;20007;-72
2023/05/14 09:33:52;;;;;;;4.07;2.10;;;25.00;54.20;;;;;;7399251;19;19922;-73
2023/05/14 09:36:18;;;;;;;4.80;2.03;;;25.00;53.70;;;;;;7401255;19;19918;-71
2023/05/14 09:38:44;;;;;;;4.00;1.98;;;25.40;53.00;;;;;;7393275;19;19932;-73
2023/05/14 09:41:10;;;;;;;4.50;2.40;;;26.40;52.70;;;;;;7399935;19;19926;-71
2023/05/14 09:43:35;;;;;;;5.35;2.97;;;26.80;50.20;;;;;;7396037;19;19974;-73
2023/05/14 09:46:04;;;;;;;3.63;2.50;;;22.90;54.20;;;;;;7399060;19;20303;-73
2023/05/14 09:48:30;;;;;;;7.97;2.90;;;24.40;55.10;;;;;;7399171;19;19974;-72
2023/05/14 09:50:56;;;;;;;4.13;2.35;;;24.80;52.60;;;;;;7400650;19;20021;-73
2023/05/14 09:53:21;;;;;;;4.78;2.72;;;24.50;53.70;;;;;;7402633;19;19951;-72
2023/05/14 09:55:48;;;;;;;4.93;2.70;;;25.20;53.00;;;;;;7400355;19;19922;-72
2023/05/14 09:58:14;;;;;;;4.03;2.25;;;25.80;52.00;;;;;;7403012;19;19925;-72
2023/05/14 10:00:46;;;;;;;5.00;3.13;;;26.30;51.10;;;;;;7401566;19;19922;-72
2023/05/14 10:03:13;;;;;;;5.40;3.45;;;26.10;50.80;;;;;;7399302;19;20019;-72
2023/05/14 10:05:41;;;;;;;6.80;3.88;;;25.90;51.90;;;;;;7402487;19;19918;-72
2023/05/14 10:08:32;;;;;;;6.78;3.33;;;25.30;52.10;;;;;;7400428;19;19918;-71
2023/05/14 10:11:01;;;;;;;5.63;2.95;;;25.90;51.70;;;;;;7403751;19;19946;-71
2023/05/14 10:13:34;;;;;;;5.10;3.30;;;26.10;51.20;;;;;;7401023;19;19919;-72
2023/05/14 10:16:20;;;;;;;5.80;3.58;;;25.80;51.60;;;;;;7404309;19;19917;-72
2023/05/14 10:18:51;;;;;;;5.10;3.20;;;27.00;51.10;;;;;;7400215;19;19915;-72
2023/05/14 10:21:20;;;;;;;4.97;4.00;;;27.00;49.50;;;;;;7403487;19;20307;-73
2023/05/14 10:23:48;;;;;;;4.22;2.60;;;25.70;49.90;;;;;;7371239;19;19915;-72
2023/05/14 10:26:14;;;;;;;6.10;2.80;;;24.30;51.70;;;;;;7384901;19;19907;-72
2023/05/14 10:28:40;;;;;;;4.55;2.78;;;24.70;52.60;;;;;;7394109;19;19911;-72
2023/05/14 10:31:09;;;;;;;5.82;3.95;;;25.20;51.90;;;;;;7395781;19;19919;-74
2023/05/14 10:33:49;;;;;;;8.13;4.03;;;24.70;52.30;;;;;;7397999;19;20312;-72
2023/05/14 10:36:19;;;;;;;6.57;3.30;;;23.90;54.30;;;;;;7394822;19;19930;-72
2023/05/14 10:38:46;;;;;;;10.25;3.55;;;23.30;55.50;;;;;;7397365;19;19911;-72
2023/05/14 10:41:20;;;;;;;6.68;3.53;;;23.70;55.30;;;;;;7393307;19;19914;-72
2023/05/14 10:43:46;;;;;;;6.90;3.30;;;24.30;56.90;;;;;;7401422;19;19919;-72
2023/05/14 10:46:13;;;;;;;6.57;2.80;;;23.70;56.90;;;;;;7395559;19;19922;-74
2023/05/14 10:48:42;;;;;;;5.07;2.53;;;21.10;60.40;;;;;;7397567;19;19970;-73
2023/05/14 10:51:11;;;;;;;4.55;2.35;;;21.90;61.60;;;;;;7375396;19;19938;-73
2023/05/14 10:53:39;;;;;;;5.85;2.45;;;21.80;61.30;;;;;;7393032;19;20278;-74
2023/05/14 10:56:14;;;;;;;5.28;2.50;;;21.50;62.80;;;;;;7388227;19;19921;-72
2023/05/14 10:58:44;;;;;;;5.50;1.98;;;22.20;62.20;;;;;;7396553;19;19914;-71
2023/05/14 11:01:12;;;;;;;6.55;2.70;;;21.70;61.60;;;;;;7391378;19;19925;-71
2023/05/14 11:03:42;;;;;;;4.85;2.25;;;21.50;63.50;;;;;;7378032;19;19972;-71
2023/05/14 11:06:09;;;;;;;7.03;2.40;;;21.50;63.00;;;;;;7391997;19;19922;-71
2023/05/14 11:08:36;;;;;;;6.05;2.63;;;21.60;63.80;;;;;;7396019;19;19918;-72
2023/05/14 11:11:02;;;;;;;6.53;2.88;;;21.40;63.50;;;;;;7400216;19;19922;-72
2023/05/14 11:13:28;;;;;;;5.53;2.85;;;21.50;64.30;;;;;;7399586;19;19918;-72
2023/05/14 11:15:54;;;;;;;6.93;2.83;;;21.00;64.90;;;;;;7401698;19;19986;-71
2023/05/14 11:18:32;;;;;;;5.00;2.70;;;21.20;64.60;;;;;;7395944;19;19915;-71
2023/05/14 11:21:01;;;;;;;4.85;2.92;;;21.80;63.60;;;;;;7400090;19;19944;-72
2023/05/14 11:23:28;;;;;;;6.13;2.55;;;22.20;63.00;;;;;;7396892;19;19915;-72
2023/05/14 11:25:55;;;;;;;4.00;2.10;;;22.50;62.20;;;;;;7401097;19;19911;-72
2023/05/14 11:28:22;;;;;;;4.60;2.25;;;22.40;60.80;;;;;;7399466;19;19922;-70
2023/05/14 11:30:52;;;;;;;5.35;2.00;;;22.40;61.40;;;;;;7399411;19;19994;-71
2023/05/14 11:33:19;;;;;;;6.03;1.95;;;22.40;61.90;;;;;;7399793;19;20267;-70
2023/05/14 11:35:47;;;;;;;4.43;1.80;;;22.50;60.50;;;;;;7398593;19;19930;-72
2023/05/14 11:38:18;;;;;;;4.53;1.95;;;22.20;60.80;;;;;;7393205;19;19919;-71
2023/05/14 11:40:57;;;;;;;5.00;1.63;;;22.30;60.70;;;;;;7400941;19;19923;-71
2023/05/14 11:43:24;;;;;;;4.18;1.52;;;22.40;59.70;;;;;;7376328;19;19924;-71
2023/05/14 11:45:52;;;;;;;6.32;1.90;;;22.80;59.50;;;;;;7398380;19;19918;-72
2023/05/14 11:48:18;;;;;;;4.28;1.70;;;23.00;59.40;;;;;;7402880;19;19907;-70
2023/05/14 11:50:47;;;;;;;2.92;1.27;;;22.60;59.00;;;;;;7405111;19;19932;-70
2023/05/14 11:53:29;;;;;;;5.75;2.05;;;22.70;59.10;;;;;;7404771;19;19926;-72
2023/05/14 11:55:58;;;;;;;4.88;2.15;;;22.30;59.10;;;;;;7405226;19;19921;-72
2023/05/14 11:58:25;;;;;;;4.13;2.05;;;22.10;60.10;;;;;;7403927;19;19915;-72
2023/05/14 12:00:52;;;;;;;4.32;2.17;;;22.10;60.20;;;;;;7400037;19;19914;-70
2023/05/14 12:03:25;;;;;;;6.63;1.92;;;23.00;59.30;;;;;;7405425;19;19918;-71
2023/05/14 12:06:01;;;;;;;3.83;1.92;;;22.90;58.60;;;;;;7403190;19;19919;-73
2023/05/14 12:08:28;;;;;;;3.97;1.85;;;22.50;58.90;;;;;;7404650;19;19923;-71
2023/05/14 12:10:55;;;;;;;5.45;2.05;;;23.10;59.10;;;;;;7407111;19;19968;-71
2023/05/14 12:13:24;;;;;;;4.35;2.17;;;23.30;59.20;;;;;;7403196;19;19926;-72
2023/05/14 12:16:00;;;;;;;4.88;1.77;;;23.70;59.10;;;;;;7406695;19;20007;-71
2023/05/14 12:18:29;;;;;;;3.58;1.85;;;21.80;62.00;;;;;;7370670;19;19918;-71
2023/05/14 12:21:00;;;;;;;5.95;2.47;;;23.10;61.40;;;;;;7400781;19;19915;-71
2023/05/14 12:23:27;;;;;;;4.57;1.75;;;23.70;58.80;;;;;;7398621;19;19919;-71
2023/05/14 12:25:53;;;;;;;4.00;1.60;;;22.80;59.70;;;;;;7406020;19;19946;-72
2023/05/14 12:28:19;;;;;;;4.85;1.67;;;22.90;58.30;;;;;;7381880;19;19940;-70
2023/05/14 12:30:54;;;;;;;5.43;1.52;;;23.00;57.20;;;;;;7404383;19;19911;-70
2023/05/14 12:33:22;;;;;;;5.35;2.00;;;23.20;57.60;;;;;;7401475;19;20287;-71
2023/05/14 12:36:00;;;;;;;5.75;1.75;;;23.40;57.80;;;;;;7405148;19;19931;-71
2023/05/14 12:38:27;;;;;;;4.60;1.40;;;23.30;57.30;;;;;;7401372;19;19915;-72
2023/05/14 12:40:53;;;;;;;4.03;1.38;;;22.00;59.40;;;;;;7403479;19;20264;-71
2023/05/14 12:43:19;;;;;;;3.67;1.60;;;21.70;61.00;;;;;;7400960;19;19914;-72
2023/05/14 12:45:44;;;;;;;6.03;1.70;;;21.20;63.00;;;;;;7382929;19;19962;-72
2023/05/14 12:48:11;;;;;;;5.13;1.50;;;21.30;62.20;;;;;;7401771;19;19915;-71